sensor_id;sensor_type;location;lat;lon;timestamp;P1;durP1;ratioP1;P2;durP2;ratioP2
17854;SDS011;9053;53.358;6.382;2022-09-13T00:01:36;11.48;;;9.63;;
17854;SDS011;9053;53.358;6.382;2022-09-13T00:04:06;11.57;;;9.60;;
17854;SDS011;9053;53.358;6.382;2022-09-13T00:06:38;9.65;;;7.68;;
17854;SDS011;9053;53.358;6.382;2022-09-13T00:09:08;10.00;;;7.78;;
17854;SDS011;9053;53.358;6.382;2022-09-13T00:11:38;10.30;;;9.20;;
17854;SDS011;9053;53.358;6.382;2022-09-13T00:14:08;11.27;;;9.38;;
17854;SDS011;9053;53.358;6.382;2022-09-13T00:16:37;11.73;;;9.18;;
17854;SDS011;9053;53.358;6.382;2022-09-13T00:19:07;11.43;;;9.15;;
17854;SDS011;9053;53.358;6.382;2022-09-13T00:21:39;12.82;;;9.32;;
17854;SDS011;9053;53.358;6.382;2022-09-13T00:24:09;11.07;;;9.60;;
17854;SDS011;9053;53.358;6.382;2022-09-13T00:26:39;13.10;;;11.07;;
17854;SDS011;9053;53.358;6.382;2022-09-13T00:29:09;12.32;;;10.25;;
17854;SDS011;9053;53.358;6.382;2022-09-13T00:31:38;12.90;;;10.80;;
17854;SDS011;9053;53.358;6.382;2022-09-13T00:34:08;11.27;;;9.55;;
17854;SDS011;9053;53.358;6.382;2022-09-13T00:36:40;13.88;;;11.60;;
17854;SDS011;9053;53.358;6.382;2022-09-13T00:39:10;10.63;;;9.52;;
17854;SDS011;9053;53.358;6.382;2022-09-13T00:41:40;15.40;;;11.60;;
17854;SDS011;9053;53.358;6.382;2022-09-13T00:47:18;13.52;;;10.15;;
17854;SDS011;9053;53.358;6.382;2022-09-13T00:49:51;11.20;;;8.48;;
17854;SDS011;9053;53.358;6.382;2022-09-13T00:52:29;12.75;;;10.00;;
17854;SDS011;9053;53.358;6.382;2022-09-13T00:55:02;11.60;;;9.68;;
17854;SDS011;9053;53.358;6.382;2022-09-13T00:57:34;10.77;;;9.68;;
17854;SDS011;9053;53.358;6.382;2022-09-13T01:00:07;14.63;;;11.52;;
17854;SDS011;9053;53.358;6.382;2022-09-13T01:02:42;14.73;;;10.73;;
17854;SDS011;9053;53.358;6.382;2022-09-13T01:05:17;13.02;;;11.05;;
17854;SDS011;9053;53.358;6.382;2022-09-13T01:07:55;12.88;;;10.73;;
17854;SDS011;9053;53.358;6.382;2022-09-13T01:10:26;13.30;;;11.70;;
17854;SDS011;9053;53.358;6.382;2022-09-13T01:12:58;13.82;;;10.70;;
17854;SDS011;9053;53.358;6.382;2022-09-13T01:15:38;13.43;;;10.70;;
17854;SDS011;9053;53.358;6.382;2022-09-13T01:18:08;12.68;;;10.27;;
17854;SDS011;9053;53.358;6.382;2022-09-13T01:20:44;14.55;;;11.25;;
17854;SDS011;9053;53.358;6.382;2022-09-13T01:23:38;13.65;;;12.13;;
17854;SDS011;9053;53.358;6.382;2022-09-13T01:26:30;11.27;;;9.85;;
17854;SDS011;9053;53.358;6.382;2022-09-13T01:29:23;11.70;;;10.15;;
17854;SDS011;9053;53.358;6.382;2022-09-13T01:32:10;13.20;;;10.57;;
17854;SDS011;9053;53.358;6.382;2022-09-13T01:34:53;11.85;;;9.93;;
17854;SDS011;9053;53.358;6.382;2022-09-13T01:37:36;13.02;;;11.55;;
17854;SDS011;9053;53.358;6.382;2022-09-13T01:40:16;11.63;;;8.95;;
17854;SDS011;9053;53.358;6.382;2022-09-13T01:43:03;9.95;;;8.73;;
17854;SDS011;9053;53.358;6.382;2022-09-13T01:45:44;13.23;;;10.27;;
17854;SDS011;9053;53.358;6.382;2022-09-13T01:48:27;14.73;;;11.95;;
17854;SDS011;9053;53.358;6.382;2022-09-13T01:51:04;13.23;;;10.90;;
17854;SDS011;9053;53.358;6.382;2022-09-13T01:53:39;12.88;;;10.13;;
17854;SDS011;9053;53.358;6.382;2022-09-13T01:56:19;12.93;;;10.70;;
17854;SDS011;9053;53.358;6.382;2022-09-13T01:58:55;12.38;;;10.15;;
17854;SDS011;9053;53.358;6.382;2022-09-13T02:01:30;11.75;;;10.40;;
17854;SDS011;9053;53.358;6.382;2022-09-13T02:04:07;12.27;;;10.27;;
17854;SDS011;9053;53.358;6.382;2022-09-13T02:06:42;11.88;;;10.13;;
17854;SDS011;9053;53.358;6.382;2022-09-13T02:09:17;13.73;;;11.65;;
17854;SDS011;9053;53.358;6.382;2022-09-13T02:11:51;12.50;;;10.68;;
17854;SDS011;9053;53.358;6.382;2022-09-13T02:14:28;15.15;;;12.82;;
17854;SDS011;9053;53.358;6.382;2022-09-13T02:17:05;8.98;;;7.15;;
17854;SDS011;9053;53.358;6.382;2022-09-13T02:19:40;4.10;;;3.47;;
17854;SDS011;9053;53.358;6.382;2022-09-13T02:22:16;3.22;;;2.17;;
17854;SDS011;9053;53.358;6.382;2022-09-13T02:24:51;1.35;;;1.20;;
17854;SDS011;9053;53.358;6.382;2022-09-13T02:27:24;2.42;;;1.00;;
17854;SDS011;9053;53.358;6.382;2022-09-13T02:29:59;1.40;;;1.02;;
17854;SDS011;9053;53.358;6.382;2022-09-13T02:32:33;2.53;;;0.90;;
17854;SDS011;9053;53.358;6.382;2022-09-13T02:35:10;1.98;;;0.90;;
17854;SDS011;9053;53.358;6.382;2022-09-13T02:37:45;3.00;;;0.90;;
17854;SDS011;9053;53.358;6.382;2022-09-13T02:40:20;2.22;;;0.85;;
17854;SDS011;9053;53.358;6.382;2022-09-13T02:42:55;1.27;;;0.82;;
17854;SDS011;9053;53.358;6.382;2022-09-13T02:45:30;2.10;;;0.88;;
17854;SDS011;9053;53.358;6.382;2022-09-13T02:48:08;2.92;;;1.25;;
17854;SDS011;9053;53.358;6.382;2022-09-13T02:50:51;1.42;;;0.80;;
17854;SDS011;9053;53.358;6.382;2022-09-13T02:53:28;1.13;;;0.93;;
17854;SDS011;9053;53.358;6.382;2022-09-13T02:56:10;1.85;;;0.70;;
17854;SDS011;9053;53.358;6.382;2022-09-13T02:58:50;3.38;;;0.98;;
17854;SDS011;9053;53.358;6.382;2022-09-13T03:01:25;1.08;;;0.80;;
17854;SDS011;9053;53.358;6.382;2022-09-13T03:03:55;0.80;;;0.57;;
17854;SDS011;9053;53.358;6.382;2022-09-13T03:06:28;1.13;;;0.73;;
17854;SDS011;9053;53.358;6.382;2022-09-13T03:08:59;1.75;;;0.70;;
17854;SDS011;9053;53.358;6.382;2022-09-13T03:11:35;0.77;;;0.65;;
17854;SDS011;9053;53.358;6.382;2022-09-13T03:14:17;1.48;;;0.75;;
17854;SDS011;9053;53.358;6.382;2022-09-13T03:17:03;1.42;;;1.00;;
17854;SDS011;9053;53.358;6.382;2022-09-13T03:19:56;1.95;;;0.90;;
17854;SDS011;9053;53.358;6.382;2022-09-13T03:22:56;2.15;;;0.90;;
17854;SDS011;9053;53.358;6.382;2022-09-13T03:25:45;1.90;;;1.10;;
17854;SDS011;9053;53.358;6.382;2022-09-13T03:28:33;2.67;;;1.13;;
17854;SDS011;9053;53.358;6.382;2022-09-13T03:31:09;3.63;;;1.15;;
17854;SDS011;9053;53.358;6.382;2022-09-13T03:33:47;3.25;;;0.90;;
17854;SDS011;9053;53.358;6.382;2022-09-13T03:36:25;2.45;;;1.38;;
17854;SDS011;9053;53.358;6.382;2022-09-13T03:39:05;3.72;;;1.15;;
17854;SDS011;9053;53.358;6.382;2022-09-13T03:41:42;0.90;;;0.85;;
17854;SDS011;9053;53.358;6.382;2022-09-13T03:44:18;3.17;;;1.00;;
17854;SDS011;9053;53.358;6.382;2022-09-13T03:46:53;1.15;;;0.93;;
17854;SDS011;9053;53.358;6.382;2022-09-13T03:49:29;2.15;;;0.85;;
17854;SDS011;9053;53.358;6.382;2022-09-13T03:52:00;1.65;;;0.90;;
17854;SDS011;9053;53.358;6.382;2022-09-13T03:54:35;2.53;;;0.90;;
17854;SDS011;9053;53.358;6.382;2022-09-13T03:57:07;2.17;;;0.90;;
17854;SDS011;9053;53.358;6.382;2022-09-13T03:59:40;1.80;;;0.80;;
17854;SDS011;9053;53.358;6.382;2022-09-13T04:02:14;1.55;;;0.90;;
17854;SDS011;9053;53.358;6.382;2022-09-13T04:04:44;1.40;;;0.77;;
17854;SDS011;9053;53.358;6.382;2022-09-13T04:07:16;2.67;;;1.10;;
17854;SDS011;9053;53.358;6.382;2022-09-13T04:09:49;3.35;;;0.80;;
17854;SDS011;9053;53.358;6.382;2022-09-13T04:12:19;1.45;;;0.82;;
17854;SDS011;9053;53.358;6.382;2022-09-13T04:14:49;3.20;;;0.90;;
17854;SDS011;9053;53.358;6.382;2022-09-13T04:17:18;3.10;;;1.00;;
17854;SDS011;9053;53.358;6.382;2022-09-13T04:19:48;1.15;;;0.80;;
17854;SDS011;9053;53.358;6.382;2022-09-13T04:22:18;1.67;;;0.80;;
17854;SDS011;9053;53.358;6.382;2022-09-13T04:24:50;2.20;;;0.60;;
17854;SDS011;9053;53.358;6.382;2022-09-13T04:27:25;2.25;;;0.98;;
17854;SDS011;9053;53.358;6.382;2022-09-13T04:29:55;1.20;;;0.80;;
17854;SDS011;9053;53.358;6.382;2022-09-13T04:32:24;3.60;;;0.85;;
17854;SDS011;9053;53.358;6.382;2022-09-13T04:34:55;1.83;;;1.02;;
17854;SDS011;9053;53.358;6.382;2022-09-13T04:37:24;2.55;;;0.98;;
17854;SDS011;9053;53.358;6.382;2022-09-13T04:39:57;5.05;;;1.48;;
17854;SDS011;9053;53.358;6.382;2022-09-13T04:42:27;2.90;;;0.88;;
17854;SDS011;9053;53.358;6.382;2022-09-13T04:44:56;1.98;;;0.93;;
17854;SDS011;9053;53.358;6.382;2022-09-13T04:47:26;2.75;;;0.95;;
17854;SDS011;9053;53.358;6.382;2022-09-13T04:49:56;2.17;;;0.75;;
17854;SDS011;9053;53.358;6.382;2022-09-13T04:52:26;2.42;;;1.05;;
17854;SDS011;9053;53.358;6.382;2022-09-13T04:54:58;2.50;;;0.88;;
17854;SDS011;9053;53.358;6.382;2022-09-13T04:57:28;2.72;;;1.10;;
17854;SDS011;9053;53.358;6.382;2022-09-13T04:59:58;3.03;;;1.10;;
17854;SDS011;9053;53.358;6.382;2022-09-13T05:02:28;3.42;;;1.42;;
17854;SDS011;9053;53.358;6.382;2022-09-13T05:04:58;4.45;;;1.60;;
17854;SDS011;9053;53.358;6.382;2022-09-13T05:07:27;2.00;;;1.10;;
17854;SDS011;9053;53.358;6.382;2022-09-13T05:10:00;3.88;;;1.40;;
17854;SDS011;9053;53.358;6.382;2022-09-13T05:12:29;4.65;;;1.58;;
17854;SDS011;9053;53.358;6.382;2022-09-13T05:14:59;2.17;;;1.23;;
17854;SDS011;9053;53.358;6.382;2022-09-13T05:17:30;1.80;;;1.10;;
17854;SDS011;9053;53.358;6.382;2022-09-13T05:20:00;4.45;;;1.35;;
17854;SDS011;9053;53.358;6.382;2022-09-13T05:22:30;4.18;;;1.83;;
17854;SDS011;9053;53.358;6.382;2022-09-13T05:25:03;5.20;;;1.38;;
17854;SDS011;9053;53.358;6.382;2022-09-13T05:27:34;3.20;;;1.40;;
17854;SDS011;9053;53.358;6.382;2022-09-13T05:30:04;3.63;;;1.30;;
17854;SDS011;9053;53.358;6.382;2022-09-13T05:32:34;3.78;;;1.70;;
17854;SDS011;9053;53.358;6.382;2022-09-13T05:35:04;5.97;;;1.80;;
17854;SDS011;9053;53.358;6.382;2022-09-13T05:37:35;2.67;;;1.30;;
17854;SDS011;9053;53.358;6.382;2022-09-13T05:40:08;5.35;;;1.75;;
17854;SDS011;9053;53.358;6.382;2022-09-13T05:42:38;1.65;;;1.30;;
17854;SDS011;9053;53.358;6.382;2022-09-13T05:45:08;3.47;;;1.58;;
17854;SDS011;9053;53.358;6.382;2022-09-13T05:47:38;2.47;;;1.20;;
17854;SDS011;9053;53.358;6.382;2022-09-13T05:50:08;3.15;;;1.20;;
17854;SDS011;9053;53.358;6.382;2022-09-13T05:52:58;2.33;;;1.20;;
17854;SDS011;9053;53.358;6.382;2022-09-13T05:55:30;2.15;;;1.00;;
17854;SDS011;9053;53.358;6.382;2022-09-13T05:58:00;2.80;;;1.08;;
17854;SDS011;9053;53.358;6.382;2022-09-13T06:00:30;2.85;;;1.10;;
17854;SDS011;9053;53.358;6.382;2022-09-13T06:03:00;3.97;;;1.10;;
17854;SDS011;9053;53.358;6.382;2022-09-13T06:05:30;1.77;;;1.05;;
17854;SDS011;9053;53.358;6.382;2022-09-13T06:08:00;2.20;;;1.05;;
17854;SDS011;9053;53.358;6.382;2022-09-13T06:10:32;2.20;;;1.00;;
17854;SDS011;9053;53.358;6.382;2022-09-13T06:13:02;5.70;;;1.50;;
17854;SDS011;9053;53.358;6.382;2022-09-13T06:15:32;3.13;;;1.08;;
17854;SDS011;9053;53.358;6.382;2022-09-13T06:18:08;4.55;;;1.15;;
17854;SDS011;9053;53.358;6.382;2022-09-13T06:20:38;2.30;;;1.17;;
17854;SDS011;9053;53.358;6.382;2022-09-13T06:23:07;2.40;;;1.48;;
17854;SDS011;9053;53.358;6.382;2022-09-13T06:25:40;2.75;;;1.33;;
17854;SDS011;9053;53.358;6.382;2022-09-13T06:28:10;2.95;;;1.10;;
17854;SDS011;9053;53.358;6.382;2022-09-13T06:30:40;2.25;;;1.13;;
17854;SDS011;9053;53.358;6.382;2022-09-13T06:33:10;3.38;;;1.42;;
17854;SDS011;9053;53.358;6.382;2022-09-13T06:35:40;3.42;;;1.13;;
17854;SDS011;9053;53.358;6.382;2022-09-13T06:38:09;4.20;;;1.58;;
17854;SDS011;9053;53.358;6.382;2022-09-13T06:40:42;3.15;;;1.20;;
17854;SDS011;9053;53.358;6.382;2022-09-13T06:43:11;2.67;;;1.15;;
17854;SDS011;9053;53.358;6.382;2022-09-13T06:45:41;2.67;;;1.23;;
17854;SDS011;9053;53.358;6.382;2022-09-13T06:48:11;5.32;;;1.55;;
17854;SDS011;9053;53.358;6.382;2022-09-13T06:50:41;4.95;;;1.63;;
17854;SDS011;9053;53.358;6.382;2022-09-13T06:53:11;4.30;;;1.83;;
17854;SDS011;9053;53.358;6.382;2022-09-13T06:55:43;2.42;;;1.13;;
17854;SDS011;9053;53.358;6.382;2022-09-13T06:58:13;2.47;;;1.30;;
17854;SDS011;9053;53.358;6.382;2022-09-13T07:00:43;2.28;;;1.10;;
17854;SDS011;9053;53.358;6.382;2022-09-13T07:03:13;4.60;;;1.75;;
17854;SDS011;9053;53.358;6.382;2022-09-13T07:05:42;2.58;;;1.17;;
17854;SDS011;9053;53.358;6.382;2022-09-13T07:08:12;1.90;;;1.05;;
17854;SDS011;9053;53.358;6.382;2022-09-13T07:10:44;3.20;;;1.10;;
17854;SDS011;9053;53.358;6.382;2022-09-13T07:13:14;3.42;;;1.67;;
17854;SDS011;9053;53.358;6.382;2022-09-13T07:15:44;3.97;;;1.67;;
17854;SDS011;9053;53.358;6.382;2022-09-13T07:18:13;4.47;;;1.50;;
17854;SDS011;9053;53.358;6.382;2022-09-13T07:20:43;5.28;;;1.35;;
17854;SDS011;9053;53.358;6.382;2022-09-13T07:23:13;4.35;;;1.85;;
17854;SDS011;9053;53.358;6.382;2022-09-13T07:25:51;3.53;;;1.58;;
17854;SDS011;9053;53.358;6.382;2022-09-13T07:28:28;3.88;;;1.48;;
17854;SDS011;9053;53.358;6.382;2022-09-13T07:31:04;4.57;;;1.20;;
17854;SDS011;9053;53.358;6.382;2022-09-13T07:33:35;3.50;;;1.40;;
17854;SDS011;9053;53.358;6.382;2022-09-13T07:36:06;2.22;;;1.30;;
17854;SDS011;9053;53.358;6.382;2022-09-13T07:38:37;3.38;;;1.20;;
17854;SDS011;9053;53.358;6.382;2022-09-13T07:41:13;2.33;;;1.25;;
17854;SDS011;9053;53.358;6.382;2022-09-13T07:43:44;2.47;;;1.10;;
17854;SDS011;9053;53.358;6.382;2022-09-13T07:46:15;2.80;;;1.42;;
17854;SDS011;9053;53.358;6.382;2022-09-13T07:48:47;4.63;;;1.35;;
17854;SDS011;9053;53.358;6.382;2022-09-13T07:51:18;4.30;;;1.27;;
17854;SDS011;9053;53.358;6.382;2022-09-13T07:53:50;3.28;;;1.10;;
17854;SDS011;9053;53.358;6.382;2022-09-13T07:56:26;4.15;;;1.00;;
17854;SDS011;9053;53.358;6.382;2022-09-13T07:58:57;2.80;;;1.10;;
17854;SDS011;9053;53.358;6.382;2022-09-13T08:01:29;2.95;;;1.10;;
17854;SDS011;9053;53.358;6.382;2022-09-13T08:04:03;2.95;;;0.90;;
17854;SDS011;9053;53.358;6.382;2022-09-13T08:06:35;3.03;;;1.20;;
17854;SDS011;9053;53.358;6.382;2022-09-13T08:09:06;2.35;;;1.20;;
17854;SDS011;9053;53.358;6.382;2022-09-13T08:11:39;3.53;;;1.00;;
17854;SDS011;9053;53.358;6.382;2022-09-13T08:14:12;3.58;;;1.30;;
17854;SDS011;9053;53.358;6.382;2022-09-13T08:16:43;2.97;;;1.00;;
17854;SDS011;9053;53.358;6.382;2022-09-13T08:19:14;3.65;;;1.40;;
17854;SDS011;9053;53.358;6.382;2022-09-13T08:21:45;3.08;;;1.25;;
17854;SDS011;9053;53.358;6.382;2022-09-13T08:24:16;4.72;;;1.52;;
17854;SDS011;9053;53.358;6.382;2022-09-13T08:26:49;5.63;;;1.33;;
17854;SDS011;9053;53.358;6.382;2022-09-13T08:29:22;4.90;;;1.23;;
17854;SDS011;9053;53.358;6.382;2022-09-13T08:31:52;3.08;;;1.20;;
17854;SDS011;9053;53.358;6.382;2022-09-13T08:34:22;2.63;;;1.17;;
17854;SDS011;9053;53.358;6.382;2022-09-13T08:36:52;2.88;;;0.95;;
17854;SDS011;9053;53.358;6.382;2022-09-13T08:39:22;3.88;;;1.60;;
17854;SDS011;9053;53.358;6.382;2022-09-13T08:42:03;4.57;;;1.33;;
17854;SDS011;9053;53.358;6.382;2022-09-13T08:44:41;4.07;;;1.27;;
17854;SDS011;9053;53.358;6.382;2022-09-13T08:47:22;5.72;;;1.40;;
17854;SDS011;9053;53.358;6.382;2022-09-13T08:49:59;5.03;;;1.33;;
17854;SDS011;9053;53.358;6.382;2022-09-13T08:52:36;4.50;;;1.15;;
17854;SDS011;9053;53.358;6.382;2022-09-13T08:55:19;3.20;;;1.20;;
17854;SDS011;9053;53.358;6.382;2022-09-13T08:57:58;4.65;;;1.30;;
17854;SDS011;9053;53.358;6.382;2022-09-13T09:00:36;4.05;;;1.17;;
17854;SDS011;9053;53.358;6.382;2022-09-13T09:03:20;5.95;;;1.42;;
17854;SDS011;9053;53.358;6.382;2022-09-13T09:05:55;3.75;;;1.17;;
17854;SDS011;9053;53.358;6.382;2022-09-13T09:08:27;4.50;;;1.00;;
17854;SDS011;9053;53.358;6.382;2022-09-13T09:11:01;2.97;;;0.98;;
17854;SDS011;9053;53.358;6.382;2022-09-13T09:13:36;6.78;;;1.23;;
17854;SDS011;9053;53.358;6.382;2022-09-13T09:16:19;3.83;;;1.02;;
17854;SDS011;9053;53.358;6.382;2022-09-13T09:18:57;6.38;;;1.23;;
17854;SDS011;9053;53.358;6.382;2022-09-13T09:21:38;4.88;;;1.25;;
17854;SDS011;9053;53.358;6.382;2022-09-13T09:24:08;2.20;;;1.08;;
17854;SDS011;9053;53.358;6.382;2022-09-13T09:26:45;3.63;;;1.00;;
17854;SDS011;9053;53.358;6.382;2022-09-13T09:29:19;4.85;;;1.25;;
17854;SDS011;9053;53.358;6.382;2022-09-13T09:31:53;3.67;;;1.25;;
17854;SDS011;9053;53.358;6.382;2022-09-13T09:34:38;3.17;;;1.00;;
17854;SDS011;9053;53.358;6.382;2022-09-13T09:37:18;4.65;;;1.42;;
17854;SDS011;9053;53.358;6.382;2022-09-13T09:39:51;4.03;;;0.93;;
17854;SDS011;9053;53.358;6.382;2022-09-13T09:42:24;3.05;;;0.98;;
17854;SDS011;9053;53.358;6.382;2022-09-13T09:45:00;3.40;;;0.93;;
17854;SDS011;9053;53.358;6.382;2022-09-13T09:47:37;2.60;;;1.23;;
17854;SDS011;9053;53.358;6.382;2022-09-13T09:50:13;2.70;;;1.13;;
17854;SDS011;9053;53.358;6.382;2022-09-13T09:52:47;4.55;;;1.05;;
17854;SDS011;9053;53.358;6.382;2022-09-13T09:55:24;2.47;;;1.17;;
17854;SDS011;9053;53.358;6.382;2022-09-13T09:57:57;2.75;;;0.70;;
17854;SDS011;9053;53.358;6.382;2022-09-13T10:00:31;2.55;;;1.02;;
17854;SDS011;9053;53.358;6.382;2022-09-13T10:03:03;3.05;;;1.00;;
17854;SDS011;9053;53.358;6.382;2022-09-13T10:05:36;2.50;;;0.93;;
17854;SDS011;9053;53.358;6.382;2022-09-13T10:08:06;2.75;;;1.20;;
17854;SDS011;9053;53.358;6.382;2022-09-13T10:10:37;4.50;;;1.10;;
17854;SDS011;9053;53.358;6.382;2022-09-13T10:13:15;3.63;;;1.20;;
17854;SDS011;9053;53.358;6.382;2022-09-13T10:15:55;9.25;;;1.48;;
17854;SDS011;9053;53.358;6.382;2022-09-13T10:18:26;4.80;;;1.10;;
17854;SDS011;9053;53.358;6.382;2022-09-13T10:21:22;3.17;;;1.00;;
17854;SDS011;9053;53.358;6.382;2022-09-13T10:23:53;5.05;;;1.33;;
17854;SDS011;9053;53.358;6.382;2022-09-13T10:26:49;2.50;;;1.23;;
17854;SDS011;9053;53.358;6.382;2022-09-13T10:29:19;3.22;;;1.33;;
17854;SDS011;9053;53.358;6.382;2022-09-13T10:31:52;3.55;;;1.20;;
17854;SDS011;9053;53.358;6.382;2022-09-13T10:34:24;3.22;;;1.10;;
17854;SDS011;9053;53.358;6.382;2022-09-13T10:36:57;3.58;;;1.00;;
17854;SDS011;9053;53.358;6.382;2022-09-13T10:39:31;4.68;;;1.30;;
17854;SDS011;9053;53.358;6.382;2022-09-13T10:42:05;3.47;;;1.10;;
17854;SDS011;9053;53.358;6.382;2022-09-13T10:44:38;5.57;;;1.15;;
17854;SDS011;9053;53.358;6.382;2022-09-13T10:47:17;3.45;;;1.27;;
17854;SDS011;9053;53.358;6.382;2022-09-13T10:49:51;3.22;;;1.10;;
17854;SDS011;9053;53.358;6.382;2022-09-13T10:52:28;4.15;;;1.08;;
17854;SDS011;9053;53.358;6.382;2022-09-13T10:58:10;5.15;;;1.20;;
17854;SDS011;9053;53.358;6.382;2022-09-13T11:00:45;4.05;;;1.00;;
17854;SDS011;9053;53.358;6.382;2022-09-13T11:03:36;3.50;;;1.20;;
17854;SDS011;9053;53.358;6.382;2022-09-13T11:06:23;5.25;;;1.20;;
17854;SDS011;9053;53.358;6.382;2022-09-13T11:09:00;3.25;;;1.13;;
17854;SDS011;9053;53.358;6.382;2022-09-13T11:11:38;3.85;;;0.93;;
17854;SDS011;9053;53.358;6.382;2022-09-13T11:14:20;3.78;;;1.40;;
17854;SDS011;9053;53.358;6.382;2022-09-13T11:17:02;4.25;;;1.35;;
17854;SDS011;9053;53.358;6.382;2022-09-13T11:19:47;2.22;;;0.90;;
17854;SDS011;9053;53.358;6.382;2022-09-13T11:22:28;4.25;;;1.20;;
17854;SDS011;9053;53.358;6.382;2022-09-13T11:25:16;4.05;;;1.27;;
17854;SDS011;9053;53.358;6.382;2022-09-13T11:28:07;4.53;;;1.38;;
17854;SDS011;9053;53.358;6.382;2022-09-13T11:30:56;4.70;;;1.20;;
17854;SDS011;9053;53.358;6.382;2022-09-13T11:33:40;5.03;;;1.40;;
17854;SDS011;9053;53.358;6.382;2022-09-13T11:36:38;4.50;;;1.33;;
17854;SDS011;9053;53.358;6.382;2022-09-13T11:39:26;4.57;;;1.55;;
17854;SDS011;9053;53.358;6.382;2022-09-13T11:42:15;5.60;;;1.50;;
17854;SDS011;9053;53.358;6.382;2022-09-13T11:50:46;5.10;;;1.25;;
17854;SDS011;9053;53.358;6.382;2022-09-13T11:53:45;3.05;;;1.30;;
17854;SDS011;9053;53.358;6.382;2022-09-13T11:56:27;5.28;;;1.50;;
17854;SDS011;9053;53.358;6.382;2022-09-13T11:59:01;7.43;;;1.58;;
17854;SDS011;9053;53.358;6.382;2022-09-13T12:01:43;4.57;;;1.10;;
17854;SDS011;9053;53.358;6.382;2022-09-13T12:04:17;3.53;;;1.40;;
17854;SDS011;9053;53.358;6.382;2022-09-13T12:06:52;4.68;;;1.35;;
17854;SDS011;9053;53.358;6.382;2022-09-13T12:09:28;3.90;;;1.30;;
17854;SDS011;9053;53.358;6.382;2022-09-13T12:12:04;4.68;;;1.35;;
17854;SDS011;9053;53.358;6.382;2022-09-13T12:14:40;4.55;;;1.10;;
17854;SDS011;9053;53.358;6.382;2022-09-13T12:17:20;4.90;;;1.48;;
17854;SDS011;9053;53.358;6.382;2022-09-13T12:19:56;3.20;;;1.15;;
17854;SDS011;9053;53.358;6.382;2022-09-13T12:22:29;4.20;;;1.55;;
17854;SDS011;9053;53.358;6.382;2022-09-13T12:25:10;4.40;;;1.30;;
17854;SDS011;9053;53.358;6.382;2022-09-13T12:27:47;4.53;;;1.42;;
17854;SDS011;9053;53.358;6.382;2022-09-13T12:30:24;8.05;;;1.48;;
17854;SDS011;9053;53.358;6.382;2022-09-13T12:33:01;2.47;;;1.02;;
17854;SDS011;9053;53.358;6.382;2022-09-13T12:35:34;4.28;;;1.17;;
17854;SDS011;9053;53.358;6.382;2022-09-13T12:38:15;2.35;;;1.23;;
17854;SDS011;9053;53.358;6.382;2022-09-13T12:41:15;4.22;;;1.35;;
17854;SDS011;9053;53.358;6.382;2022-09-13T12:43:56;5.90;;;1.10;;
17854;SDS011;9053;53.358;6.382;2022-09-13T12:46:56;5.10;;;1.15;;
17854;SDS011;9053;53.358;6.382;2022-09-13T12:49:51;6.20;;;1.48;;
17854;SDS011;9053;53.358;6.382;2022-09-13T12:53:05;5.82;;;1.23;;
17854;SDS011;9053;53.358;6.382;2022-09-13T12:55:59;2.90;;;1.20;;
17854;SDS011;9053;53.358;6.382;2022-09-13T12:58:47;4.32;;;1.30;;
17854;SDS011;9053;53.358;6.382;2022-09-13T13:01:30;3.13;;;1.10;;
17854;SDS011;9053;53.358;6.382;2022-09-13T13:04:02;4.63;;;1.50;;
17854;SDS011;9053;53.358;6.382;2022-09-13T13:06:39;3.78;;;1.23;;
17854;SDS011;9053;53.358;6.382;2022-09-13T13:09:21;4.68;;;1.65;;
17854;SDS011;9053;53.358;6.382;2022-09-13T13:11:56;5.40;;;1.50;;
17854;SDS011;9053;53.358;6.382;2022-09-13T13:23:17;5.13;;;1.30;;
17854;SDS011;9053;53.358;6.382;2022-09-13T13:25:57;7.65;;;1.67;;
17854;SDS011;9053;53.358;6.382;2022-09-13T13:28:53;3.08;;;0.90;;
17854;SDS011;9053;53.358;6.382;2022-09-13T13:31:40;3.60;;;1.23;;
17854;SDS011;9053;53.358;6.382;2022-09-13T13:34:28;3.22;;;1.10;;
17854;SDS011;9053;53.358;6.382;2022-09-13T13:37:02;5.00;;;1.35;;
17854;SDS011;9053;53.358;6.382;2022-09-13T13:39:35;3.55;;;1.00;;
17854;SDS011;9053;53.358;6.382;2022-09-13T13:42:22;2.63;;;1.30;;
17854;SDS011;9053;53.358;6.382;2022-09-13T13:45:03;2.08;;;0.70;;
17854;SDS011;9053;53.358;6.382;2022-09-13T13:53:47;2.33;;;1.00;;
17854;SDS011;9053;53.358;6.382;2022-09-13T13:56:24;3.17;;;1.30;;
17854;SDS011;9053;53.358;6.382;2022-09-13T13:58:59;4.65;;;1.20;;
17854;SDS011;9053;53.358;6.382;2022-09-13T14:01:35;2.95;;;0.88;;
17854;SDS011;9053;53.358;6.382;2022-09-13T14:07:17;2.92;;;1.38;;
17854;SDS011;9053;53.358;6.382;2022-09-13T14:10:00;5.47;;;1.17;;
17854;SDS011;9053;53.358;6.382;2022-09-13T14:12:43;2.92;;;1.05;;
17854;SDS011;9053;53.358;6.382;2022-09-13T14:15:28;2.60;;;1.10;;
17854;SDS011;9053;53.358;6.382;2022-09-13T14:18:17;2.70;;;0.95;;
17854;SDS011;9053;53.358;6.382;2022-09-13T14:21:02;3.20;;;1.08;;
17854;SDS011;9053;53.358;6.382;2022-09-13T14:23:36;2.03;;;1.10;;
17854;SDS011;9053;53.358;6.382;2022-09-13T14:26:06;5.32;;;1.15;;
17854;SDS011;9053;53.358;6.382;2022-09-13T14:28:36;3.22;;;1.05;;
17854;SDS011;9053;53.358;6.382;2022-09-13T14:31:06;2.25;;;0.95;;
17854;SDS011;9053;53.358;6.382;2022-09-13T14:33:45;3.78;;;1.05;;
17854;SDS011;9053;53.358;6.382;2022-09-13T14:36:17;4.57;;;1.05;;
17854;SDS011;9053;53.358;6.382;2022-09-13T14:38:52;3.53;;;0.88;;
17854;SDS011;9053;53.358;6.382;2022-09-13T14:41:29;4.63;;;0.82;;
17854;SDS011;9053;53.358;6.382;2022-09-13T14:44:13;5.30;;;4.55;;
17854;SDS011;9053;53.358;6.382;2022-09-13T14:46:50;2.50;;;0.90;;
17854;SDS011;9053;53.358;6.382;2022-09-13T14:49:26;3.97;;;1.10;;
17854;SDS011;9053;53.358;6.382;2022-09-13T14:52:02;6.53;;;0.98;;
17854;SDS011;9053;53.358;6.382;2022-09-13T14:54:38;2.13;;;0.90;;
17854;SDS011;9053;53.358;6.382;2022-09-13T14:57:16;2.15;;;1.15;;
17854;SDS011;9053;53.358;6.382;2022-09-13T14:59:52;4.28;;;1.05;;
17854;SDS011;9053;53.358;6.382;2022-09-13T15:02:25;3.03;;;1.20;;
17854;SDS011;9053;53.358;6.382;2022-09-13T15:04:58;2.38;;;0.80;;
17854;SDS011;9053;53.358;6.382;2022-09-13T15:07:29;3.83;;;1.00;;
17854;SDS011;9053;53.358;6.382;2022-09-13T15:10:07;1.52;;;0.80;;
17854;SDS011;9053;53.358;6.382;2022-09-13T15:12:50;1.55;;;0.73;;
17854;SDS011;9053;53.358;6.382;2022-09-13T15:15:24;3.55;;;1.15;;
17854;SDS011;9053;53.358;6.382;2022-09-13T15:18:00;4.32;;;0.90;;
17854;SDS011;9053;53.358;6.382;2022-09-13T15:20:45;2.33;;;0.88;;
17854;SDS011;9053;53.358;6.382;2022-09-13T15:23:19;4.35;;;1.63;;
17854;SDS011;9053;53.358;6.382;2022-09-13T15:25:55;1.95;;;1.20;;
17854;SDS011;9053;53.358;6.382;2022-09-13T15:28:28;3.10;;;0.90;;
17854;SDS011;9053;53.358;6.382;2022-09-13T15:31:01;8.30;;;5.40;;
17854;SDS011;9053;53.358;6.382;2022-09-13T15:33:31;2.38;;;0.70;;
17854;SDS011;9053;53.358;6.382;2022-09-13T15:39:02;1.08;;;0.60;;
17854;SDS011;9053;53.358;6.382;2022-09-13T15:41:52;2.38;;;0.82;;
17854;SDS011;9053;53.358;6.382;2022-09-13T15:44:23;2.88;;;0.90;;
17854;SDS011;9053;53.358;6.382;2022-09-13T15:46:55;4.75;;;1.00;;
17854;SDS011;9053;53.358;6.382;2022-09-13T15:49:30;2.63;;;0.80;;
17854;SDS011;9053;53.358;6.382;2022-09-13T15:52:01;2.17;;;0.70;;
17854;SDS011;9053;53.358;6.382;2022-09-13T15:54:33;3.13;;;1.08;;
17854;SDS011;9053;53.358;6.382;2022-09-13T15:57:07;2.38;;;0.95;;
17854;SDS011;9053;53.358;6.382;2022-09-13T15:59:41;3.35;;;1.45;;
17854;SDS011;9053;53.358;6.382;2022-09-13T16:02:16;3.22;;;1.00;;
17854;SDS011;9053;53.358;6.382;2022-09-13T16:04:48;3.25;;;1.10;;
17854;SDS011;9053;53.358;6.382;2022-09-13T16:07:18;3.33;;;1.35;;
17854;SDS011;9053;53.358;6.382;2022-09-13T16:09:49;4.70;;;1.00;;
17854;SDS011;9053;53.358;6.382;2022-09-13T16:12:21;2.65;;;1.23;;
17854;SDS011;9053;53.358;6.382;2022-09-13T16:14:52;1.90;;;0.70;;
17854;SDS011;9053;53.358;6.382;2022-09-13T16:17:22;3.55;;;0.85;;
17854;SDS011;9053;53.358;6.382;2022-09-13T16:19:53;3.70;;;1.00;;
17854;SDS011;9053;53.358;6.382;2022-09-13T16:22:23;1.60;;;0.80;;